createdAt,value
2022-11-18T00:01:38.650Z,2.10
2022-11-18T00:04:08.519Z,2.95
2022-11-18T00:06:38.369Z,2.25
2022-11-18T00:09:08.163Z,1.33
2022-11-18T00:11:53.020Z,1.15
2022-11-18T00:16:59.615Z,0.82
2022-11-18T00:19:31.000Z,1.02
2022-11-18T00:22:01.333Z,2.20
2022-11-18T00:24:31.531Z,0.60
2022-11-18T00:27:03.869Z,0.80
2022-11-18T00:29:33.682Z,1.05
2022-11-18T00:32:03.485Z,1.88
2022-11-18T00:34:33.286Z,2.55
2022-11-18T00:37:03.069Z,1.20
2022-11-18T00:39:33.053Z,2.08
2022-11-18T00:42:17.958Z,0.75
2022-11-18T00:47:17.411Z,1.15
2022-11-18T00:49:47.150Z,0.82
2022-11-18T00:52:16.900Z,1.55
2022-11-18T00:54:46.671Z,2.53
2022-11-18T00:57:19.020Z,0.93
2022-11-18T00:59:48.770Z,1.40
2022-11-18T01:02:18.560Z,1.83
2022-11-18T01:04:48.404Z,1.63
2022-11-18T01:07:18.326Z,1.73
2022-11-18T01:09:48.210Z,1.85
2022-11-18T01:12:33.072Z,2.10
2022-11-18T01:15:02.848Z,3.17
2022-11-18T01:17:33.467Z,1.35
2022-11-18T01:20:03.372Z,1.50
2022-11-18T01:22:33.148Z,2.33
2022-11-18T01:25:02.979Z,1.63
2022-11-18T01:27:35.332Z,1.58
2022-11-18T01:30:05.266Z,1.25
2022-11-18T01:32:35.099Z,3.55
2022-11-18T01:35:04.900Z,4.38
2022-11-18T01:37:34.725Z,1.20
2022-11-18T01:40:07.480Z,2.90
2022-11-18T01:42:39.971Z,1.10
2022-11-18T01:45:24.027Z,1.73
2022-11-18T01:47:59.857Z,1.73
2022-11-18T01:50:30.480Z,1.40
2022-11-18T01:53:04.675Z,6.47
2022-11-18T01:55:38.000Z,1.80
2022-11-18T01:58:15.683Z,2.88
2022-11-18T02:00:45.587Z,3.20
2022-11-18T02:03:15.979Z,2.42
2022-11-18T02:05:48.312Z,4.18
2022-11-18T02:08:20.564Z,2.10
2022-11-18T02:10:50.352Z,2.25
2022-11-18T02:13:23.095Z,3.05
2022-11-18T02:16:03.385Z,2.25
2022-11-18T02:18:44.572Z,2.15
2022-11-18T02:21:24.347Z,2.28
2022-11-18T02:24:15.872Z,1.88
2022-11-18T02:27:15.708Z,1.02
2022-11-18T02:29:56.447Z,1.70
2022-11-18T02:32:29.376Z,2.15
2022-11-18T02:35:05.427Z,2.83
2022-11-18T02:37:39.512Z,2.83
2022-11-18T02:40:16.768Z,1.30
2022-11-18T02:42:51.131Z,2.25
2022-11-18T02:45:25.272Z,1.27
2022-11-18T02:47:56.549Z,2.63
2022-11-18T02:50:29.141Z,3.00
2022-11-18T02:53:02.368Z,2.05
2022-11-18T02:55:35.794Z,1.98
2022-11-18T02:58:07.910Z,3.05
2022-11-18T03:00:40.366Z,2.10
2022-11-18T03:03:28.925Z,0.80
2022-11-18T03:06:08.143Z,0.82
2022-11-18T03:08:41.789Z,2.22
2022-11-18T03:11:18.691Z,5.97
2022-11-18T03:14:04.260Z,1.77
2022-11-18T03:16:42.100Z,3.70
2022-11-18T03:19:21.721Z,1.63
2022-11-18T03:22:02.235Z,0.70
2022-11-18T03:24:35.819Z,2.50
2022-11-18T03:27:19.288Z,1.43
2022-11-18T03:29:57.463Z,1.50
2022-11-18T03:32:32.668Z,2.03
2022-11-18T03:35:06.067Z,0.82
2022-11-18T03:37:37.710Z,2.75
2022-11-18T03:40:14.177Z,1.98
2022-11-18T03:42:47.328Z,1.13
2022-11-18T03:45:22.315Z,1.23
2022-11-18T03:48:00.816Z,0.68
2022-11-18T03:50:35.121Z,0.77
2022-11-18T03:53:06.588Z,1.95
2022-11-18T03:55:41.833Z,1.48
2022-11-18T03:58:19.167Z,1.73
2022-11-18T04:00:52.583Z,4.15
2022-11-18T04:03:26.124Z,1.95
2022-11-18T04:06:01.306Z,1.45
2022-11-18T04:08:39.732Z,0.68
2022-11-18T04:11:35.709Z,2.58
2022-11-18T04:14:07.040Z,1.33
2022-11-18T04:16:42.826Z,1.60
2022-11-18T04:19:15.263Z,1.10
2022-11-18T04:21:45.122Z,2.67
2022-11-18T04:24:15.017Z,2.95
2022-11-18T04:26:44.882Z,1.55
2022-11-18T04:29:14.814Z,4.10
2022-11-18T04:31:44.753Z,0.80
2022-11-18T04:34:17.279Z,2.08
2022-11-18T04:36:47.067Z,0.80
2022-11-18T04:39:18.397Z,0.70
2022-11-18T04:42:00.795Z,0.73
2022-11-18T04:44:32.992Z,1.65
2022-11-18T04:47:04.923Z,1.42
2022-11-18T04:49:37.837Z,1.77
2022-11-18T04:52:08.390Z,2.35
2022-11-18T04:54:38.388Z,2.97
2022-11-18T04:57:08.265Z,2.65
2022-11-18T04:59:38.204Z,1.73
2022-11-18T05:02:08.305Z,0.50
2022-11-18T05:04:40.700Z,1.55
2022-11-18T05:07:10.573Z,0.95
2022-11-18T05:09:40.387Z,2.55
2022-11-18T05:12:27.401Z,0.88
2022-11-18T05:14:57.193Z,0.90
2022-11-18T05:17:27.543Z,2.75
2022-11-18T05:19:59.972Z,0.88
2022-11-18T05:22:29.778Z,4.88
2022-11-18T05:24:59.609Z,1.90
2022-11-18T05:27:29.480Z,0.93
2022-11-18T05:29:59.320Z,1.65
2022-11-18T05:32:29.114Z,2.50
2022-11-18T05:35:01.505Z,0.88
2022-11-18T05:37:31.352Z,2.05
2022-11-18T05:40:01.220Z,3.08
2022-11-18T05:42:43.442Z,1.05
2022-11-18T05:45:13.506Z,0.60
2022-11-18T05:47:55.562Z,3.30
2022-11-18T05:50:27.978Z,2.83
2022-11-18T05:52:57.823Z,2.22
2022-11-18T05:55:32.137Z,1.08
2022-11-18T05:58:01.940Z,0.82
2022-11-18T06:00:33.031Z,1.30
2022-11-18T06:03:03.820Z,1.70
2022-11-18T06:05:36.232Z,2.40
2022-11-18T06:08:06.159Z,4.20
2022-11-18T06:10:41.377Z,0.95
2022-11-18T06:13:14.257Z,1.85
2022-11-18T06:15:46.553Z,2.45
2022-11-18T06:18:21.582Z,0.65
2022-11-18T06:20:55.832Z,6.80
2022-11-18T06:23:26.124Z,1.98
2022-11-18T06:25:56.448Z,1.98
2022-11-18T06:28:26.876Z,1.00
2022-11-18T06:30:56.725Z,1.02
2022-11-18T06:33:26.507Z,0.85
2022-11-18T06:35:58.951Z,0.50
2022-11-18T06:38:28.801Z,1.25
2022-11-18T06:41:02.061Z,0.93
2022-11-18T06:43:55.313Z,1.23
2022-11-18T06:46:37.695Z,1.88
2022-11-18T06:49:07.493Z,2.10
2022-11-18T06:51:40.209Z,2.72
2022-11-18T06:54:11.089Z,1.38
2022-11-18T06:56:41.079Z,6.30
2022-11-18T06:59:11.012Z,3.40
2022-11-18T07:01:42.432Z,1.95
2022-11-18T07:04:12.220Z,1.75
2022-11-18T07:06:44.664Z,1.00
2022-11-18T07:09:14.539Z,2.50
2022-11-18T07:11:44.326Z,2.00
2022-11-18T07:14:15.450Z,1.83
2022-11-18T07:16:45.268Z,1.50
2022-11-18T07:19:16.705Z,2.05
2022-11-18T07:21:49.300Z,1.17
2022-11-18T07:24:19.572Z,2.45
2022-11-18T07:26:49.405Z,1.42
2022-11-18T07:29:19.634Z,1.63
2022-11-18T07:31:49.664Z,0.90
2022-11-18T07:34:19.698Z,1.13
2022-11-18T07:36:52.098Z,1.65
2022-11-18T07:39:21.880Z,2.53
2022-11-18T07:41:51.708Z,2.75
2022-11-18T07:44:21.500Z,1.08
2022-11-18T07:46:51.382Z,1.83
2022-11-18T07:49:21.225Z,1.77
2022-11-18T07:51:54.636Z,1.77
2022-11-18T07:54:24.459Z,3.47
2022-11-18T07:56:54.262Z,1.40
2022-11-18T07:59:24.075Z,1.85
2022-11-18T08:01:54.039Z,1.77
2022-11-18T08:04:24.609Z,2.13
2022-11-18T08:06:57.063Z,4.70
2022-11-18T08:09:26.909Z,2.47
2022-11-18T08:11:56.724Z,3.15
2022-11-18T08:14:26.558Z,3.50
2022-11-18T08:16:56.432Z,1.63
2022-11-18T08:19:26.402Z,2.50
2022-11-18T08:21:58.814Z,3.00
2022-11-18T08:24:28.696Z,1.50
2022-11-18T08:26:58.547Z,2.15
2022-11-18T08:29:28.564Z,3.00
2022-11-18T08:31:58.579Z,2.42
2022-11-18T08:34:28.346Z,2.85
2022-11-18T08:37:00.740Z,2.60
2022-11-18T08:39:30.585Z,2.28
2022-11-18T08:42:01.517Z,2.78
2022-11-18T08:44:33.344Z,2.30
2022-11-18T08:47:03.683Z,3.30
2022-11-18T08:49:33.472Z,1.83
2022-11-18T08:52:06.001Z,1.95
2022-11-18T08:54:35.855Z,3.38
2022-11-18T08:57:05.753Z,3.33
2022-11-18T08:59:35.573Z,3.17
2022-11-18T09:02:05.476Z,3.88
2022-11-18T09:04:35.275Z,3.05
2022-11-18T09:07:07.635Z,2.53
2022-11-18T09:09:37.736Z,2.70
2022-11-18T09:12:09.248Z,3.05
2022-11-18T09:15:12.825Z,3.20
2022-11-18T09:17:29.012Z,2.60
2022-11-18T09:19:58.805Z,2.95
2022-11-18T09:22:31.147Z,4.25
2022-11-18T09:25:01.020Z,3.45
2022-11-18T09:27:30.799Z,5.15
2022-11-18T09:30:00.574Z,3.65
2022-11-18T09:32:30.439Z,3.25
2022-11-18T09:35:00.242Z,2.80
2022-11-18T09:37:32.745Z,3.95
2022-11-18T09:40:02.577Z,1.83
2022-11-18T09:42:49.154Z,3.88
2022-11-18T09:45:26.444Z,2.95
2022-11-18T09:48:00.569Z,2.60
2022-11-18T09:53:25.411Z,3.85
2022-11-18T09:55:56.801Z,3.70
2022-11-18T09:58:35.312Z,2.97
2022-11-18T10:01:05.705Z,2.22
2022-11-18T10:03:37.172Z,1.67
2022-11-18T10:06:22.039Z,2.70
2022-11-18T10:09:08.367Z,3.45
2022-11-18T10:14:28.684Z,2.97
2022-11-18T10:17:07.046Z,3.50
2022-11-18T10:19:42.948Z,2.92
2022-11-18T10:22:24.973Z,5.07
2022-11-18T10:25:00.806Z,3.83
2022-11-18T10:27:40.390Z,4.47
2022-11-18T10:30:15.851Z,3.03
2022-11-18T10:33:02.642Z,2.70
2022-11-18T10:35:35.143Z,5.38
2022-11-18T10:38:09.051Z,3.38
2022-11-18T10:40:49.495Z,4.10
2022-11-18T10:43:51.213Z,5.53
2022-11-18T10:46:27.508Z,3.72
2022-11-18T10:49:19.107Z,2.90
2022-11-18T10:51:50.812Z,5.80
2022-11-18T10:54:23.200Z,5.07
2022-11-18T10:56:58.309Z,2.58
2022-11-18T10:59:35.951Z,3.05
2022-11-18T11:02:18.404Z,3.53
2022-11-18T11:04:48.900Z,6.25
2022-11-18T11:07:25.795Z,3.50
2022-11-18T11:10:03.852Z,2.85
2022-11-18T11:12:36.208Z,5.93
2022-11-18T11:15:13.377Z,4.47
2022-11-18T11:18:10.754Z,4.97
2022-11-18T11:20:41.327Z,5.60
2022-11-18T11:23:14.848Z,2.85
2022-11-18T11:31:23.408Z,3.58
2022-11-18T11:33:59.816Z,1.90
2022-11-18T11:36:39.931Z,2.97
2022-11-18T11:39:30.590Z,2.70
2022-11-18T11:42:12.124Z,3.40
2022-11-18T11:44:55.724Z,5.55
2022-11-18T11:47:50.135Z,3.17
2022-11-18T11:50:27.131Z,6.57
2022-11-18T11:53:17.192Z,5.60
2022-11-18T11:55:58.706Z,2.25
2022-11-18T11:58:43.117Z,2.30
2022-11-18T12:01:22.926Z,5.68
2022-11-18T12:04:04.152Z,2.65
2022-11-18T12:06:34.487Z,2.75
2022-11-18T12:09:10.072Z,3.85
2022-11-18T12:11:46.901Z,3.28
2022-11-18T12:14:29.021Z,2.38
2022-11-18T12:17:07.396Z,2.22
2022-11-18T12:19:42.723Z,6.68
2022-11-18T12:22:14.057Z,3.45
2022-11-18T12:24:45.159Z,1.83
2022-11-18T12:27:17.386Z,3.22
2022-11-18T12:30:00.093Z,3.05
2022-11-18T12:32:42.389Z,4.05
2022-11-18T12:35:31.341Z,1.85
2022-11-18T12:38:04.771Z,4.80
2022-11-18T12:40:48.787Z,2.70
2022-11-18T12:44:04.416Z,3.85
2022-11-18T12:46:52.128Z,2.58
2022-11-18T12:49:52.118Z,4.30
2022-11-18T12:52:55.668Z,6.10
2022-11-18T12:55:35.407Z,5.95
2022-11-18T12:58:05.189Z,3.78
2022-11-18T13:00:52.636Z,4.90
2022-11-18T13:03:29.035Z,6.45
2022-11-18T13:06:15.308Z,6.93
2022-11-18T13:08:53.704Z,3.88
2022-11-18T13:11:39.917Z,3.30
2022-11-18T13:14:29.372Z,3.15
2022-11-18T13:17:35.451Z,3.50
2022-11-18T13:20:05.237Z,3.78
2022-11-18T13:22:47.538Z,3.08
2022-11-18T13:25:29.605Z,5.55
2022-11-18T13:28:09.353Z,4.95
2022-11-18T13:33:39.028Z,4.15
2022-11-18T13:36:19.277Z,4.30
2022-11-18T13:38:59.142Z,2.53
2022-11-18T13:41:35.249Z,5.60
2022-11-18T13:44:18.507Z,4.65
2022-11-18T13:46:50.757Z,6.40
2022-11-18T13:49:24.834Z,5.97
2022-11-18T13:51:55.439Z,5.03
2022-11-18T13:54:28.150Z,2.72
2022-11-18T13:57:00.556Z,4.15
2022-11-18T13:59:30.803Z,4.00
2022-11-18T14:02:03.112Z,4.80
2022-11-18T14:04:35.341Z,4.47
2022-11-18T14:07:25.565Z,3.33
2022-11-18T14:09:56.821Z,1.88
2022-11-18T14:12:32.597Z,4.03
2022-11-18T14:15:18.897Z,3.47
2022-11-18T14:17:57.573Z,3.03
2022-11-18T14:20:28.533Z,6.20
2022-11-18T14:23:00.195Z,4.88
2022-11-18T14:25:33.068Z,2.47
2022-11-18T14:28:22.441Z,7.20
2022-11-18T14:31:02.187Z,5.30
2022-11-18T14:33:32.880Z,3.42
2022-11-18T14:36:04.383Z,6.18
2022-11-18T14:41:45.554Z,7.28
2022-11-18T14:44:18.772Z,2.83
2022-11-18T14:46:52.268Z,3.25
2022-11-18T14:49:24.767Z,3.45
2022-11-18T14:51:55.476Z,5.53
2022-11-18T14:54:28.238Z,6.50
2022-11-18T14:57:03.115Z,3.45
2022-11-18T14:59:35.643Z,7.72
2022-11-18T15:02:05.584Z,4.65
2022-11-18T15:04:35.453Z,6.18
2022-11-18T15:07:05.285Z,4.47
2022-11-18T15:09:35.324Z,3.45
2022-11-18T15:12:05.073Z,6.97
2022-11-18T15:14:37.980Z,5.15
2022-11-18T15:17:08.197Z,6.20
2022-11-18T15:19:38.345Z,8.40
2022-11-18T15:22:11.056Z,4.00
2022-11-18T15:24:41.263Z,6.63
2022-11-18T15:27:12.443Z,9.20
2022-11-18T15:29:44.831Z,8.25
2022-11-18T15:32:14.655Z,9.55
2022-11-18T15:34:44.588Z,7.35
2022-11-18T15:37:15.132Z,5.28
2022-11-18T15:39:45.038Z,5.45
2022-11-18T15:42:19.139Z,3.17
2022-11-18T15:44:54.369Z,4.68
2022-11-18T15:47:24.203Z,2.53
2022-11-18T15:49:53.985Z,6.60
2022-11-18T15:52:23.901Z,4.13
2022-11-18T15:54:53.741Z,5.28
2022-11-18T15:57:23.565Z,3.78
2022-11-18T15:59:55.897Z,3.45
2022-11-18T16:02:25.718Z,4.50
2022-11-18T16:04:55.488Z,6.90
2022-11-18T16:07:25.365Z,4.55
2022-11-18T16:10:07.687Z,6.32
2022-11-18T16:12:49.331Z,5.00
2022-11-18T16:15:34.260Z,5.63
2022-11-18T16:20:33.796Z,5.88
2022-11-18T16:23:03.647Z,5.72
2022-11-18T16:25:33.539Z,7.43
2022-11-18T16:28:07.444Z,7.20
2022-11-18T16:33:22.672Z,7.70
2022-11-18T16:35:52.448Z,4.53
2022-11-18T16:38:23.436Z,6.30
2022-11-18T16:40:58.124Z,9.93
2022-11-18T16:46:03.780Z,7.28
2022-11-18T16:48:35.426Z,8.05
2022-11-18T16:51:21.375Z,4.80
2022-11-18T16:53:55.619Z,11.60
2022-11-18T16:56:27.434Z,10.13
2022-11-18T16:59:01.506Z,4.38
2022-11-18T17:01:34.408Z,3.63
2022-11-18T17:04:04.478Z,5.15
2022-11-18T17:06:34.841Z,6.32
2022-11-18T17:09:04.724Z,6.32
2022-11-18T17:11:34.792Z,5.65
2022-11-18T17:14:04.564Z,6.05
2022-11-18T17:16:37.264Z,5.97
2022-11-18T17:19:17.334Z,8.27
2022-11-18T17:21:48.041Z,8.27
2022-11-18T17:24:20.320Z,8.55
2022-11-18T17:26:50.872Z,4.90
2022-11-18T17:29:21.201Z,5.70
2022-11-18T17:31:54.489Z,6.93
2022-11-18T17:34:24.417Z,9.18
2022-11-18T17:36:54.209Z,10.70
2022-11-18T17:39:23.958Z,8.52
2022-11-18T17:42:06.248Z,6.22
2022-11-18T17:44:36.055Z,9.30
2022-11-18T17:47:08.519Z,12.73
2022-11-18T17:49:38.637Z,6.40
2022-11-18T17:52:08.639Z,9.30
2022-11-18T17:54:38.408Z,7.57
2022-11-18T17:57:08.318Z,8.60
2022-11-18T17:59:38.138Z,6.30
2022-11-18T18:02:12.154Z,9.07
2022-11-18T18:04:42.009Z,8.07
2022-11-18T18:07:11.898Z,7.45
2022-11-18T18:09:41.822Z,7.05
2022-11-18T18:12:23.876Z,8.90
2022-11-18T18:14:53.671Z,6.70
2022-11-18T18:17:26.120Z,6.28
2022-11-18T18:19:55.999Z,6.40
2022-11-18T18:22:25.784Z,7.50
2022-11-18T18:24:55.649Z,5.95
2022-11-18T18:27:25.455Z,10.65
2022-11-18T18:29:55.902Z,7.28
2022-11-18T18:32:29.539Z,9.63
2022-11-18T18:35:00.179Z,8.83
2022-11-18T18:37:30.552Z,6.47
2022-11-18T18:40:00.671Z,6.47
2022-11-18T18:42:30.748Z,6.53
2022-11-18T18:45:13.033Z,6.72
2022-11-18T18:47:45.392Z,7.78
2022-11-18T18:50:15.174Z,9.35
2022-11-18T18:52:45.088Z,5.90
2022-11-18T18:55:14.887Z,8.52
2022-11-18T18:57:44.853Z,7.05
2022-11-18T19:00:16.215Z,9.27
2022-11-18T19:02:48.621Z,9.88
2022-11-18T19:05:18.622Z,9.52
2022-11-18T19:07:48.824Z,10.45
2022-11-18T19:10:19.373Z,7.95
2022-11-18T19:12:52.050Z,7.82
2022-11-18T19:15:23.176Z,9.77
2022-11-18T19:17:55.614Z,9.82
2022-11-18T19:20:37.342Z,10.23
2022-11-18T19:23:10.637Z,5.65
2022-11-18T19:25:40.697Z,9.02
2022-11-18T19:28:11.507Z,9.38
2022-11-18T19:30:41.385Z,8.13
2022-11-18T19:33:13.901Z,8.93
2022-11-18T19:35:43.673Z,7.10
2022-11-18T19:38:13.660Z,9.32
2022-11-18T19:40:43.421Z,10.82
2022-11-18T19:43:13.216Z,9.45
2022-11-18T19:45:42.985Z,7.70
2022-11-18T19:48:15.420Z,6.75
2022-11-18T19:50:45.550Z,8.95
2022-11-18T19:53:27.655Z,9.07
2022-11-18T19:55:57.945Z,5.57
2022-11-18T19:58:28.935Z,7.00
2022-11-18T20:00:58.726Z,6.72
2022-11-18T20:03:31.115Z,6.45
2022-11-18T20:06:03.678Z,5.95
2022-11-18T20:08:35.648Z,9.48
2022-11-18T20:11:09.522Z,8.00
2022-11-18T20:13:40.608Z,5.10
2022-11-18T20:16:12.318Z,6.82
2022-11-18T20:18:47.644Z,6.40
2022-11-18T20:21:20.031Z,5.53
2022-11-18T20:23:51.201Z,7.90
2022-11-18T20:26:23.330Z,5.60
2022-11-18T20:28:57.430Z,7.88
2022-11-18T20:34:00.561Z,6.15
2022-11-18T20:36:32.057Z,6.55
2022-11-18T20:39:03.966Z,6.53
2022-11-18T20:41:34.108Z,5.95
2022-11-18T20:44:04.057Z,10.95
2022-11-18T20:46:34.499Z,7.45
2022-11-18T20:49:07.019Z,7.65
2022-11-18T20:51:37.062Z,8.18
2022-11-18T20:54:09.231Z,5.25
2022-11-18T20:56:39.802Z,8.32
2022-11-18T20:59:09.909Z,8.52
2022-11-18T21:01:39.925Z,7.97
2022-11-18T21:04:13.931Z,7.63
2022-11-18T21:06:43.954Z,12.20
2022-11-18T21:09:14.355Z,7.20
2022-11-18T21:11:44.138Z,5.63
2022-11-18T21:14:23.406Z,5.90
2022-11-18T21:16:57.871Z,5.65
2022-11-18T21:19:32.832Z,5.97
2022-11-18T21:22:00.072Z,6.90
2022-11-18T21:24:31.452Z,6.53
2022-11-18T21:27:02.246Z,4.65
2022-11-18T21:29:33.939Z,6.53
2022-11-18T21:32:04.005Z,6.65
2022-11-18T21:34:36.458Z,5.72
2022-11-18T21:37:06.470Z,5.65
2022-11-18T21:39:36.292Z,9.43
2022-11-18T21:42:06.621Z,5.00
2022-11-18T21:44:36.371Z,7.63
2022-11-18T21:47:06.188Z,3.45
2022-11-18T21:49:38.596Z,6.95
2022-11-18T21:52:08.503Z,5.53
2022-11-18T21:54:38.858Z,3.42
2022-11-18T21:57:08.632Z,4.53
2022-11-18T21:59:38.526Z,5.22
2022-11-18T22:02:08.617Z,4.50
2022-11-18T22:04:53.475Z,4.65
2022-11-18T22:07:23.296Z,3.58
2022-11-18T22:09:55.248Z,4.68
2022-11-18T22:12:25.088Z,4.47
2022-11-18T22:14:54.958Z,3.92
2022-11-18T22:17:24.798Z,4.68
2022-11-18T22:19:57.263Z,4.50
2022-11-18T22:22:27.044Z,4.88
2022-11-18T22:24:56.916Z,4.60
2022-11-18T22:27:26.788Z,4.95
2022-11-18T22:29:56.596Z,8.05
2022-11-18T22:32:26.336Z,6.25
2022-11-18T22:34:58.672Z,4.18
2022-11-18T22:37:28.439Z,4.57
2022-11-18T22:39:58.248Z,3.53
2022-11-18T22:42:46.007Z,2.05
2022-11-18T22:45:16.137Z,4.70
2022-11-18T22:47:46.294Z,1.33
2022-11-18T22:50:21.443Z,1.40
2022-11-18T22:52:51.308Z,3.47
2022-11-18T22:55:21.353Z,2.38
2022-11-18T22:57:51.173Z,5.55
2022-11-18T23:00:21.457Z,3.13
2022-11-18T23:02:52.239Z,3.72
2022-11-18T23:05:24.632Z,1.70
2022-11-18T23:07:54.493Z,2.70
2022-11-18T23:10:24.343Z,0.57
2022-11-18T23:13:06.564Z,1.27
2022-11-18T23:15:36.438Z,1.13
2022-11-18T23:18:11.296Z,3.20
2022-11-18T23:20:44.268Z,1.40
2022-11-18T23:23:14.051Z,1.73
2022-11-18T23:25:43.860Z,3.78
2022-11-18T23:28:13.663Z,0.70
2022-11-18T23:30:43.417Z,1.30
2022-11-18T23:33:13.391Z,3.00
2022-11-18T23:35:45.724Z,3.53
2022-11-18T23:38:15.515Z,3.70
2022-11-18T23:40:45.311Z,3.33
2022-11-18T23:43:15.402Z,2.38
2022-11-18T23:45:45.399Z,2.92
2022-11-18T23:48:15.350Z,3.08
2022-11-18T23:50:55.973Z,4.40
2022-11-18T23:53:26.459Z,2.63
2022-11-18T23:55:57.020Z,5.03
2022-11-18T23:58:27.090Z,2.25
